Time,TemperatureF,DewpointF,PressureIn,WindDirection,WindDirectionDegrees,WindSpeedMPH,WindSpeedGustMPH,Humidity,HourlyPrecipIn,Conditions,Clouds,dailyrainin,SoftwareType,DateUTC
2013-04-06 00:00:00,46.9,43.8,30.00,NW,323,0.0,0.0,89,0.00,CLR,,0.03,WeatherDisplay:10.37,2013-04-06 04:00:00,
2013-04-06 00:04:00,47.0,43.9,30.00,NW,323,0.0,0.0,89,0.00,RA,,0.00,WeatherDisplay:10.37,2013-04-06 04:04:00,
2013-04-06 00:09:00,47.1,44.0,30.00,NW,323,0.0,0.0,89,0.00,RA,,0.00,WeatherDisplay:10.37,2013-04-06 04:09:00,
2013-04-06 00:12:00,47.0,43.9,30.00,NW,323,0.0,0.0,89,0.00,CLR,,0.00,WeatherDisplay:10.37,2013-04-06 04:12:00,
2013-04-06 00:17:00,47.1,44.0,30.00,NW,323,0.0,0.0,89,0.00,CLR,,0.00,WeatherDisplay:10.37,2013-04-06 04:17:00,
2013-04-06 00:22:00,47.0,43.6,30.00,NW,323,0.0,0.0,88,0.00,CLR,,0.00,WeatherDisplay:10.37,2013-04-06 04:22:00,
2013-04-06 00:27:00,46.9,43.5,30.00,NW,323,0.0,0.0,88,0.00,CLR,,0.00,WeatherDisplay:10.37,2013-04-06 04:27:00,
2013-04-06 00:32:00,46.8,43.7,30.00,NW,323,0.0,0.0,89,0.00,CLR,,0.00,WeatherDisplay:10.37,2013-04-06 04:32:00,
2013-04-06 00:37:00,46.7,43.3,30.00,NW,323,0.0,0.0,88,0.00,CLR,,0.00,WeatherDisplay:10.37,2013-04-06 04:37:00,
2013-04-06 00:42:00,46.6,43.2,30.00,NW,323,0.0,0.0,88,0.00,CLR,,0.00,WeatherDisplay:10.37,2013-04-06 04:42:00,
2013-04-06 00:47:00,46.7,43.3,30.00,NW,323,0.0,0.0,88,0.00,CLR,,0.00,WeatherDisplay:10.37,2013-04-06 04:47:00,
2013-04-06 00:52:00,46.7,43.3,30.00,NW,323,0.0,0.0,88,0.00,CLR,,0.00,WeatherDisplay:10.37,2013-04-06 04:52:00,
2013-04-06 00:57:00,46.7,43.3,30.00,NW,323,0.0,0.0,88,0.00,CLR,,0.00,WeatherDisplay:10.37,2013-04-06 04:57:00,
2013-04-06 01:02:00,46.5,43.1,30.00,NW,323,0.0,0.0,88,0.00,CLR,,0.00,WeatherDisplay:10.37,2013-04-06 05:02:00,
2013-04-06 01:07:00,46.5,43.1,30.00,NW,323,0.0,0.0,88,0.00,CLR,,0.00,WeatherDisplay:10.37,2013-04-06 05:07:00,
2013-04-06 01:12:00,46.4,43.0,30.00,NW,323,0.0,0.0,88,0.00,CLR,,0.00,WeatherDisplay:10.37,2013-04-06 05:12:00,
2013-04-06 01:17:00,46.4,42.7,30.01,NW,323,0.0,0.0,87,0.00,CLR,,0.00,WeatherDisplay:10.37,2013-04-06 05:17:00,
2013-04-06 01:22:00,46.3,42.6,30.01,NW,323,0.0,0.0,87,0.00,CLR,,0.00,WeatherDisplay:10.37,2013-04-06 05:22:00,
2013-04-06 01:27:00,46.1,42.7,30.01,NW,323,0.0,0.0,88,0.00,CLR,,0.00,WeatherDisplay:10.37,2013-04-06 05:27:00,
2013-04-06 01:32:00,45.8,42.4,30.01,NW,323,0.0,0.0,88,0.00,CLR,,0.00,WeatherDisplay:10.37,2013-04-06 05:32:00,
2013-04-06 01:37:00,45.6,42.3,30.01,NW,323,0.0,0.0,88,0.00,CLR,,0.00,WeatherDisplay:10.37,2013-04-06 05:37:00,
2013-04-06 01:42:00,45.7,42.1,30.01,WNW,290,0.0,0.0,87,0.00,CLR,,0.00,WeatherDisplay:10.37,2013-04-06 05:42:00,
2013-04-06 01:47:00,45.9,41.9,30.01,WNW,290,0.0,0.0,86,0.00,CLR,,0.00,WeatherDisplay:10.37,2013-04-06 05:47:00,
2013-04-06 01:52:00,45.9,41.9,30.01,WNW,290,0.0,0.0,86,0.00,CLR,,0.00,WeatherDisplay:10.37,2013-04-06 05:52:00,
2013-04-06 01:57:00,45.9,41.9,30.01,WNW,290,0.0,0.0,86,0.00,CLR,,0.00,WeatherDisplay:10.37,2013-04-06 05:57:00,
2013-04-06 02:02:00,46.0,41.4,30.01,WNW,293,0.0,0.0,84,0.00,CLR,,0.00,WeatherDisplay:10.37,2013-04-06 06:02:00,
2013-04-06 02:07:00,46.2,41.6,30.01,NW,315,0.0,0.0,84,0.00,CLR,,0.00,WeatherDisplay:10.37,2013-04-06 06:07:00,
2013-04-06 02:12:00,46.1,41.5,30.01,NW,314,0.0,0.0,84,0.00,CLR,,0.00,WeatherDisplay:10.37,2013-04-06 06:12:00,
2013-04-06 02:17:00,45.8,41.2,30.01,WNW,291,0.0,0.0,84,0.00,CLR,,0.00,WeatherDisplay:10.37,2013-04-06 06:17:00,
2013-04-06 02:22:00,45.3,40.7,30.02,WNW,293,0.0,0.0,84,0.00,CLR,,0.00,WeatherDisplay:10.37,2013-04-06 06:22:00,
2013-04-06 02:27:00,45.0,40.5,30.02,NW,316,0.0,0.0,84,0.00,CLR,,0.00,WeatherDisplay:10.37,2013-04-06 06:27:00,
2013-04-06 02:32:00,44.8,40.3,30.02,WNW,302,0.0,0.0,84,0.00,CLR,,0.00,WeatherDisplay:10.37,2013-04-06 06:32:00,
2013-04-06 02:37:00,44.9,40.0,30.02,North,352,1.1,1.1,83,0.00,CLR,,0.00,WeatherDisplay:10.37,2013-04-06 06:37:00,
2013-04-06 02:42:00,45.3,39.2,30.02,North,352,0.0,0.0,79,0.00,CLR,,0.00,WeatherDisplay:10.37,2013-04-06 06:42:00,
2013-04-06 02:47:00,45.6,38.5,30.02,North,352,0.0,0.0,76,0.00,CLR,,0.00,WeatherDisplay:10.37,2013-04-06 06:47:00,
2013-04-06 02:52:00,45.9,38.1,30.03,NE,43,1.1,1.1,74,0.00,CLR,,0.00,WeatherDisplay:10.37,2013-04-06 06:52:00,
2013-04-06 02:57:00,46.5,37.2,30.03,NNW,328,1.1,1.1,70,0.00,CLR,,0.00,WeatherDisplay:10.37,2013-04-06 06:57:00,
2013-04-06 03:02:00,46.9,37.3,30.03,North,358,1.1,1.4,69,0.00,CLR,,0.00,WeatherDisplay:10.37,2013-04-06 07:02:00,
2013-04-06 03:07:00,47.5,37.1,30.03,North,5,1.1,1.1,67,0.00,CLR,,0.00,WeatherDisplay:10.37,2013-04-06 07:07:00,
2013-04-06 03:12:00,47.9,36.7,30.03,NNE,18,3.5,3.5,65,0.00,CLR,,0.00,WeatherDisplay:10.37,2013-04-06 07:12:00,
2013-04-06 03:17:00,48.3,36.7,30.04,NNW,348,4.6,4.6,64,0.00,CLR,,0.00,WeatherDisplay:10.37,2013-04-06 07:17:00,
2013-04-06 03:22:00,48.7,36.7,30.04,NE,40,4.0,4.0,63,0.00,CLR,,0.00,WeatherDisplay:10.37,2013-04-06 07:22:00,
2013-04-06 03:27:00,48.8,36.8,30.04,North,1,2.3,2.3,63,0.00,CLR,,0.00,WeatherDisplay:10.37,2013-04-06 07:27:00,
2013-04-06 03:32:00,48.8,36.8,30.04,NW,306,2.3,2.3,63,0.00,CLR,,0.00,WeatherDisplay:10.37,2013-04-06 07:32:00,
2013-04-06 03:37:00,48.8,36.8,30.05,East,79,2.3,2.3,63,0.00,CLR,,0.00,WeatherDisplay:10.37,2013-04-06 07:37:00,
2013-04-06 03:42:00,48.8,36.4,30.05,NW,318,5.8,5.8,62,0.00,CLR,,0.00,WeatherDisplay:10.37,2013-04-06 07:42:00,
2013-04-06 03:47:00,48.8,36.4,30.05,NNE,33,4.6,4.6,62,0.00,CLR,,0.00,WeatherDisplay:10.37,2013-04-06 07:47:00,
2013-04-06 03:52:00,48.8,36.4,30.06,NE,43,4.0,4.0,62,0.00,CLR,,0.00,WeatherDisplay:10.37,2013-04-06 07:52:00,
2013-04-06 03:57:00,48.8,35.9,30.06,NNE,22,3.5,3.5,61,0.00,CLR,,0.00,WeatherDisplay:10.37,2013-04-06 07:57:00,
2013-04-06 04:02:00,48.5,36.1,30.06,ENE,60,4.0,4.0,62,0.00,CLR,,0.00,WeatherDisplay:10.37,2013-04-06 08:02:00,
2013-04-06 04:07:00,48.4,36.0,30.07,North,359,3.5,3.5,62,0.00,CLR,,0.00,WeatherDisplay:10.37,2013-04-06 08:07:00,
2013-04-06 04:12:00,48.1,35.7,30.07,NE,51,3.5,3.5,62,0.00,CLR,,0.00,WeatherDisplay:10.37,2013-04-06 08:12:00,
2013-04-06 04:17:00,48.0,35.6,30.07,NE,40,5.8,5.8,62,0.00,CLR,,0.00,WeatherDisplay:10.37,2013-04-06 08:17:00,
2013-04-06 04:22:00,47.8,35.8,30.08,NE,54,3.5,3.5,63,0.00,CLR,,0.00,WeatherDisplay:10.37,2013-04-06 08:22:00,
2013-04-06 04:27:00,47.7,35.7,30.08,NE,53,4.0,4.0,63,0.00,CLR,,0.00,WeatherDisplay:10.37,2013-04-06 08:27:00,
2013-04-06 04:32:00,47.7,35.7,30.08,NNE,33,4.6,4.6,63,0.00,CLR,,0.00,WeatherDisplay:10.37,2013-04-06 08:32:00,
2013-04-06 04:37:00,47.7,35.7,30.08,NE,53,3.5,3.5,63,0.00,CLR,,0.00,WeatherDisplay:10.37,2013-04-06 08:37:00,
2013-04-06 04:42:00,47.5,35.5,30.08,NE,46,3.5,3.5,63,0.00,CLR,,0.00,WeatherDisplay:10.37,2013-04-06 08:42:00,
2013-04-06 04:47:00,47.4,35.0,30.08,ENE,60,3.5,3.5,62,0.00,CLR,,0.00,WeatherDisplay:10.37,2013-04-06 08:47:00,
2013-04-06 04:52:00,47.3,35.3,30.08,NE,44,1.1,1.3,63,0.00,CLR,,0.00,WeatherDisplay:10.37,2013-04-06 08:52:00,
2013-04-06 04:57:00,47.1,34.7,30.08,NE,54,3.0,3.0,62,0.00,CLR,,0.00,WeatherDisplay:10.37,2013-04-06 08:57:00,
2013-04-06 05:02:00,46.9,34.6,30.08,NE,44,3.0,3.0,62,0.00,CLR,,0.00,WeatherDisplay:10.37,2013-04-06 09:02:00,
2013-04-06 05:07:00,46.9,34.1,30.09,NE,39,2.3,2.3,61,0.00,CLR,,0.00,WeatherDisplay:10.37,2013-04-06 09:07:00,
2013-04-06 05:12:00,47.0,33.8,30.09,NE,34,3.5,3.5,60,0.00,CLR,,0.00,WeatherDisplay:10.37,2013-04-06 09:12:00,
2013-04-06 05:17:00,47.3,33.7,30.09,ENE,63,3.5,3.5,59,0.00,CLR,,0.00,WeatherDisplay:10.37,2013-04-06 09:17:00,
2013-04-06 05:22:00,47.3,33.3,30.09,NE,36,3.5,3.5,58,0.00,CLR,,0.00,WeatherDisplay:10.37,2013-04-06 09:22:00,
2013-04-06 05:27:00,47.5,33.0,30.10,NNE,23,4.6,4.6,57,0.00,CLR,,0.00,WeatherDisplay:10.37,2013-04-06 09:27:00,
2013-04-06 05:32:00,47.7,32.8,30.10,ENE,68,3.5,3.5,56,0.00,CLR,,0.00,WeatherDisplay:10.37,2013-04-06 09:32:00,
2013-04-06 05:37:00,47.8,32.4,30.10,ENE,60,3.5,3.5,55,0.00,CLR,,0.00,WeatherDisplay:10.37,2013-04-06 09:37:00,
2013-04-06 05:42:00,47.9,32.0,30.10,North,9,4.0,4.0,54,0.00,CLR,,0.00,WeatherDisplay:10.37,2013-04-06 09:42:00,
2013-04-06 05:47:00,48.0,31.7,30.10,NE,50,3.5,3.5,53,0.00,CLR,,0.00,WeatherDisplay:10.37,2013-04-06 09:47:00,
2013-04-06 05:52:00,48.0,31.7,30.10,ENE,74,5.0,5.0,53,0.00,CLR,,0.00,WeatherDisplay:10.37,2013-04-06 09:52:00,
2013-04-06 05:57:00,48.1,31.3,30.10,NE,39,3.5,3.5,52,0.00,CLR,,0.00,WeatherDisplay:10.37,2013-04-06 09:57:00,
2013-04-06 06:02:00,48.0,31.2,30.10,ENE,77,3.5,3.5,52,0.00,CLR,,0.00,WeatherDisplay:10.37,2013-04-06 10:02:00,
2013-04-06 06:07:00,48.1,30.8,30.10,ENE,72,3.5,3.5,51,0.00,CLR,,0.00,WeatherDisplay:10.37,2013-04-06 10:07:00,
2013-04-06 06:12:00,48.3,31.0,30.10,East,90,3.5,3.5,51,0.00,CLR,,0.00,WeatherDisplay:10.37,2013-04-06 10:12:00,
2013-04-06 06:17:00,48.4,30.6,30.11,NNE,24,3.5,3.5,50,0.00,CLR,,0.00,WeatherDisplay:10.37,2013-04-06 10:17:00,
2013-04-06 06:22:00,48.4,30.6,30.12,NE,34,5.0,5.0,50,0.00,CLR,,0.00,WeatherDisplay:10.37,2013-04-06 10:22:00,
2013-04-06 06:27:00,48.3,31.0,30.12,ENE,60,2.3,2.3,51,0.00,CLR,,0.00,WeatherDisplay:10.37,2013-04-06 10:27:00,
2013-04-06 06:32:00,48.1,30.8,30.13,NNE,33,3.5,3.5,51,0.00,CLR,,0.00,WeatherDisplay:10.37,2013-04-06 10:32:00,
2013-04-06 06:37:00,47.8,31.0,30.14,NE,38,4.6,4.6,52,0.00,CLR,,0.00,WeatherDisplay:10.37,2013-04-06 10:37:00,
2013-04-06 06:43:00,47.7,30.9,30.14,NE,43,3.5,3.5,52,0.00,CLR,,0.00,WeatherDisplay:10.37,2013-04-06 10:43:00,
2013-04-06 06:48:00,47.5,30.7,30.14,North,11,3.5,3.5,52,0.00,CLR,,0.00,WeatherDisplay:10.37,2013-04-06 10:48:00,
2013-04-06 06:53:00,47.4,31.1,30.15,NE,53,3.5,3.5,53,0.00,CLR,,0.00,WeatherDisplay:10.37,2013-04-06 10:53:00,
2013-04-06 06:58:00,47.2,30.9,30.15,NNE,23,3.5,3.5,53,0.00,CLR,,0.00,WeatherDisplay:10.37,2013-04-06 10:58:00,
2013-04-06 07:03:00,47.1,30.4,30.16,NE,46,5.0,5.0,52,0.00,CLR,,0.00,WeatherDisplay:10.37,2013-04-06 11:03:00,
2013-04-06 07:08:00,47.1,30.8,30.16,NE,37,5.8,5.8,53,0.00,CLR,,0.00,WeatherDisplay:10.37,2013-04-06 11:08:00,
2013-04-06 07:13:00,47.1,30.8,30.16,NNE,33,3.5,3.5,53,0.00,CLR,,0.00,WeatherDisplay:10.37,2013-04-06 11:13:00,
2013-04-06 07:18:00,47.0,30.7,30.16,NE,56,2.3,2.3,53,0.00,CLR,,0.00,WeatherDisplay:10.37,2013-04-06 11:18:00,
2013-04-06 07:23:00,47.0,30.7,30.16,ENE,72,6.9,6.9,53,0.00,CLR,,0.00,WeatherDisplay:10.37,2013-04-06 11:23:00,
2013-04-06 07:28:00,47.0,30.7,30.16,NE,47,3.5,3.5,53,0.00,CLR,,0.00,WeatherDisplay:10.37,2013-04-06 11:28:00,
2013-04-06 07:33:00,47.0,30.7,30.17,East,97,3.5,3.5,53,0.00,CLR,,0.00,WeatherDisplay:10.37,2013-04-06 11:33:00,
2013-04-06 07:34:00,46.9,30.6,30.17,ENE,60,3.5,3.5,53,0.00,CLR,,0.00,WeatherDisplay:10.37,2013-04-06 11:34:00,
2013-04-06 07:39:00,46.9,30.6,30.17,NNW,332,1.1,1.1,53,0.00,CLR,,0.00,WeatherDisplay:10.37,2013-04-06 11:39:00,
2013-04-06 07:44:00,47.2,30.5,30.17,NNE,30,6.9,6.9,52,0.00,CLR,,0.00,WeatherDisplay:10.37,2013-04-06 11:44:00,
2013-04-06 07:49:00,47.3,30.1,30.18,NE,54,4.6,4.6,51,0.00,CLR,,0.00,WeatherDisplay:10.37,2013-04-06 11:49:00,
2013-04-06 07:54:00,47.4,30.2,30.18,NNE,12,6.0,6.0,51,0.00,CLR,,0.00,WeatherDisplay:10.37,2013-04-06 11:54:00,
2013-04-06 07:59:00,47.6,30.3,30.18,NE,47,4.0,4.0,51,0.00,CLR,,0.00,WeatherDisplay:10.37,2013-04-06 11:59:00,
2013-04-06 08:04:00,47.9,29.6,30.18,ESE,122,9.2,9.2,49,0.00,CLR,,0.00,WeatherDisplay:10.37,2013-04-06 12:04:00,
2013-04-06 08:09:00,48.3,29.5,30.18,ENE,58,9.2,9.2,48,0.00,CLR,,0.00,WeatherDisplay:10.37,2013-04-06 12:09:00,
2013-04-06 08:14:00,48.7,29.9,30.18,ENE,74,8.0,8.0,48,0.00,CLR,,0.00,WeatherDisplay:10.37,2013-04-06 12:14:00,
2013-04-06 08:19:00,49.1,29.7,30.19,SSW,193,4.6,4.6,47,0.00,CLR,,0.00,WeatherDisplay:10.37,2013-04-06 12:19:00,
2013-04-06 08:24:00,49.5,29.6,30.19,NE,41,2.3,2.3,46,0.00,CLR,,0.00,WeatherDisplay:10.37,2013-04-06 12:24:00,
2013-04-06 08:29:00,49.8,28.7,30.19,East,101,5.8,5.8,44,0.00,CLR,,0.00,WeatherDisplay:10.37,2013-04-06 12:29:00,
2013-04-06 08:34:00,49.9,28.8,30.20,NE,44,4.6,4.6,44,0.00,CLR,,0.00,WeatherDisplay:10.37,2013-04-06 12:34:00,
2013-04-06 08:39:00,50.1,28.4,30.20,NNE,27,9.0,9.0,43,0.00,CLR,,0.00,WeatherDisplay:10.37,2013-04-06 12:39:00,
2013-04-06 08:44:00,50.5,28.2,30.20,NE,56,3.5,3.5,42,0.00,CLR,,0.00,WeatherDisplay:10.37,2013-04-06 12:44:00,
2013-04-06 08:49:00,50.6,27.7,30.21,ENE,72,5.8,5.8,41,0.00,CLR,,0.00,WeatherDisplay:10.37,2013-04-06 12:49:00,
2013-04-06 08:54:00,50.9,26.8,30.21,ENE,78,5.0,5.0,39,0.00,CLR,,0.00,WeatherDisplay:10.37,2013-04-06 12:54:00,
2013-04-06 08:59:00,51.0,27.5,30.21,ENE,70,2.3,2.3,40,0.00,CLR,,0.00,WeatherDisplay:10.37,2013-04-06 12:59:00,
2013-04-06 09:04:00,51.4,26.6,30.21,NNE,31,8.1,8.1,38,0.00,CLR,,0.00,WeatherDisplay:10.37,2013-04-06 13:04:00,
2013-04-06 09:09:00,51.2,27.1,30.21,NNE,13,3.5,3.5,39,0.00,CLR,,0.00,WeatherDisplay:10.37,2013-04-06 13:09:00,
2013-04-06 09:14:00,51.4,26.0,30.22,ENE,77,9.2,9.2,37,0.00,CLR,,0.00,WeatherDisplay:10.37,2013-04-06 13:14:00,
2013-04-06 09:19:00,51.5,26.7,30.22,ESE,115,6.9,6.9,38,0.00,CLR,,0.00,WeatherDisplay:10.37,2013-04-06 13:19:00,
2013-04-06 09:24:00,51.4,26.6,30.22,ENE,78,5.8,5.8,38,0.00,CLR,,0.00,WeatherDisplay:10.37,2013-04-06 13:24:00,
2013-04-06 09:29:00,51.7,27.5,30.22,ESE,111,4.0,4.0,39,0.00,CLR,,0.00,WeatherDisplay:10.37,2013-04-06 13:29:00,
2013-04-06 09:34:00,52.1,27.9,30.22,NE,38,8.1,8.1,39,0.00,CLR,,0.00,WeatherDisplay:10.37,2013-04-06 13:34:00,
2013-04-06 09:39:00,52.0,25.8,30.22,ENE,78,8.1,8.1,36,0.00,CLR,,0.00,WeatherDisplay:10.37,2013-04-06 13:39:00,
2013-04-06 09:44:00,52.1,26.6,30.22,East,82,5.0,5.0,37,0.00,CLR,,0.00,WeatherDisplay:10.37,2013-04-06 13:44:00,
2013-04-06 09:49:00,52.5,25.6,30.23,ENE,72,5.0,5.0,35,0.00,CLR,,0.00,WeatherDisplay:10.37,2013-04-06 13:49:00,
2013-04-06 09:54:00,52.7,24.4,30.22,ENE,72,6.9,6.9,33,0.00,CLR,,0.00,WeatherDisplay:10.37,2013-04-06 13:54:00,
2013-04-06 09:59:00,53.0,25.3,30.22,ENE,63,5.8,5.8,34,0.00,CLR,,0.00,WeatherDisplay:10.37,2013-04-06 13:59:00,
2013-04-06 10:04:00,53.2,23.3,30.23,NNE,23,7.0,7.0,31,0.00,CLR,,0.00,WeatherDisplay:10.37,2013-04-06 14:04:00,
2013-04-06 10:09:00,53.0,23.9,30.23,NE,54,10.4,10.4,32,0.00,CLR,,0.00,WeatherDisplay:10.37,2013-04-06 14:09:00,
2013-04-06 10:14:00,53.3,24.2,30.23,NNE,18,3.5,3.5,32,0.00,CLR,,0.00,WeatherDisplay:10.37,2013-04-06 14:14:00,
2013-04-06 10:19:00,53.9,25.4,30.24,NNE,22,4.0,4.0,33,0.00,CLR,,0.00,WeatherDisplay:10.37,2013-04-06 14:19:00,
2013-04-06 10:24:00,53.6,22.1,30.24,East,86,9.2,9.2,29,0.00,CLR,,0.00,WeatherDisplay:10.37,2013-04-06 14:24:00,
2013-04-06 10:29:00,54.0,25.5,30.24,ENE,65,3.5,3.5,33,0.00,CLR,,0.00,WeatherDisplay:10.37,2013-04-06 14:29:00,
2013-04-06 10:34:00,54.6,24.5,30.24,NE,37,3.5,3.5,31,0.00,CLR,,0.00,WeatherDisplay:10.37,2013-04-06 14:34:00,
2013-04-06 10:39:00,54.9,24.0,30.25,North,350,3.5,3.5,30,0.00,CLR,,0.00,WeatherDisplay:10.37,2013-04-06 14:39:00,
2013-04-06 10:44:00,54.6,23.7,30.24,NNW,331,4.6,4.6,30,0.00,CLR,,0.00,WeatherDisplay:10.37,2013-04-06 14:44:00,
2013-04-06 10:49:00,54.8,23.9,30.25,NNW,343,9.2,9.2,30,0.00,CLR,,0.00,WeatherDisplay:10.37,2013-04-06 14:49:00,
2013-04-06 10:54:00,55.0,24.1,30.25,ENE,60,5.8,5.8,30,0.00,CLR,,0.00,WeatherDisplay:10.37,2013-04-06 14:54:00,
2013-04-06 10:59:00,55.9,25.7,30.25,North,6,4.0,4.0,31,0.00,CLR,,0.00,WeatherDisplay:10.37,2013-04-06 14:59:00,
2013-04-06 11:04:00,55.6,24.6,30.25,NNE,29,3.5,3.5,30,0.00,CLR,,0.00,WeatherDisplay:10.37,2013-04-06 15:04:00,
2013-04-06 11:09:00,55.8,24.8,30.25,NE,51,4.6,4.6,30,0.00,CLR,,0.00,WeatherDisplay:10.37,2013-04-06 15:09:00,
2013-04-06 11:14:00,56.1,25.8,30.25,NE,45,6.9,6.9,31,0.00,CLR,,0.00,WeatherDisplay:10.37,2013-04-06 15:14:00,
2013-04-06 11:19:00,56.0,23.3,30.25,ENE,75,4.6,4.6,28,0.00,CLR,,0.00,WeatherDisplay:10.37,2013-04-06 15:19:00,
2013-04-06 11:24:00,56.2,24.3,30.25,SE,127,5.8,5.8,29,0.00,CLR,,0.00,WeatherDisplay:10.37,2013-04-06 15:24:00,
2013-04-06 11:29:00,56.6,25.5,30.25,ENE,68,4.6,4.6,30,0.00,CLR,,0.00,WeatherDisplay:10.37,2013-04-06 15:29:00,
2013-04-06 11:34:00,56.7,25.6,30.25,ENE,57,3.5,3.5,30,0.00,CLR,,0.00,WeatherDisplay:10.37,2013-04-06 15:34:00,
2013-04-06 11:39:00,57.1,25.9,30.25,NE,53,4.6,4.6,30,0.00,CLR,,0.00,WeatherDisplay:10.37,2013-04-06 15:39:00,
2013-04-06 11:44:00,57.4,27.0,30.25,East,95,5.0,5.0,31,0.00,CLR,,0.00,WeatherDisplay:10.37,2013-04-06 15:44:00,
2013-04-06 11:49:00,56.8,24.0,30.25,ENE,70,8.1,8.1,28,0.00,CLR,,0.00,WeatherDisplay:10.37,2013-04-06 15:49:00,
2013-04-06 11:54:00,57.0,25.0,30.25,ENE,70,4.6,4.6,29,0.00,CLR,,0.00,WeatherDisplay:10.37,2013-04-06 15:54:00,
2013-04-06 11:59:00,57.4,25.4,30.25,NE,47,4.6,4.6,29,0.00,CLR,,0.00,WeatherDisplay:10.37,2013-04-06 15:59:00,
2013-04-06 12:04:00,58.6,26.4,30.24,NNE,18,4.0,4.0,29,0.00,CLR,,0.00,WeatherDisplay:10.37,2013-04-06 16:04:00,
2013-04-06 12:09:00,58.0,25.0,30.25,ESE,114,8.1,8.1,28,0.00,CLR,,0.00,WeatherDisplay:10.37,2013-04-06 16:09:00,
2013-04-06 12:14:00,58.4,26.2,30.24,NNW,345,4.6,4.6,29,0.00,CLR,,0.00,WeatherDisplay:10.37,2013-04-06 16:14:00,
2013-04-06 12:19:00,58.9,27.5,30.24,NNE,26,3.5,3.5,30,0.00,CLR,,0.00,WeatherDisplay:10.37,2013-04-06 16:19:00,
2013-04-06 12:24:00,58.8,25.7,30.25,North,4,6.9,6.9,28,0.00,CLR,,0.00,WeatherDisplay:10.37,2013-04-06 16:24:00,
2013-04-06 12:29:00,58.5,26.3,30.24,NE,36,7.0,7.0,29,0.00,CLR,,0.00,WeatherDisplay:10.37,2013-04-06 16:29:00,
2013-04-06 12:34:00,59.0,28.4,30.24,NNE,22,5.0,5.0,31,0.00,CLR,,0.00,WeatherDisplay:10.37,2013-04-06 16:34:00,
2013-04-06 12:39:00,59.3,27.0,30.25,NW,318,3.5,3.5,29,0.00,CLR,,0.00,WeatherDisplay:10.37,2013-04-06 16:39:00,
2013-04-06 12:44:00,59.2,27.7,30.25,NNE,13,5.8,5.8,30,0.00,CLR,,0.00,WeatherDisplay:10.37,2013-04-06 16:44:00,
2013-04-06 12:49:00,59.2,30.8,30.24,NNW,335,2.3,2.3,34,0.00,CLR,,0.00,WeatherDisplay:10.37,2013-04-06 16:49:00,
2013-04-06 12:54:00,60.1,28.5,30.24,ENE,67,3.5,4.7,30,0.00,CLR,,0.00,WeatherDisplay:10.37,2013-04-06 16:54:00,
2013-04-06 12:59:00,59.8,26.6,30.24,NNE,25,5.0,5.0,28,0.00,CLR,,0.00,WeatherDisplay:10.37,2013-04-06 16:59:00,
2013-04-06 13:05:00,59.6,28.1,30.24,East,91,4.6,4.6,30,0.00,CLR,,0.00,WeatherDisplay:10.37,2013-04-06 17:05:00,
2013-04-06 13:10:00,60.3,28.7,30.24,East,81,2.3,2.4,30,0.00,CLR,,0.00,WeatherDisplay:10.37,2013-04-06 17:10:00,
2013-04-06 13:15:00,60.5,28.9,30.24,NE,56,2.0,2.0,30,0.00,CLR,,0.00,WeatherDisplay:10.37,2013-04-06 17:15:00,
2013-04-06 13:20:00,60.9,27.5,30.24,NW,325,3.0,3.0,28,0.00,CLR,,0.00,WeatherDisplay:10.37,2013-04-06 17:20:00,
2013-04-06 13:25:00,61.0,29.3,30.24,SSE,148,2.3,2.3,30,0.00,CLR,,0.00,WeatherDisplay:10.37,2013-04-06 17:25:00,
2013-04-06 13:30:00,61.4,27.1,30.24,ESE,111,6.9,6.9,27,0.00,CLR,,0.00,WeatherDisplay:10.37,2013-04-06 17:30:00,
2013-04-06 13:35:00,61.1,30.2,30.24,North,8,2.3,2.3,31,0.00,CLR,,0.00,WeatherDisplay:10.37,2013-04-06 17:35:00,
2013-04-06 13:40:00,61.1,30.2,30.23,West,274,2.3,2.3,31,0.00,CLR,,0.00,WeatherDisplay:10.37,2013-04-06 17:40:00,
2013-04-06 13:45:00,61.3,30.4,30.23,North,4,2.3,2.3,31,0.00,CLR,,0.00,WeatherDisplay:10.37,2013-04-06 17:45:00,
2013-04-06 13:50:00,62.4,29.7,30.23,ESE,108,5.8,5.8,29,0.00,CLR,,0.00,WeatherDisplay:10.37,2013-04-06 17:50:00,
2013-04-06 13:55:00,62.8,30.9,30.23,ENE,74,4.6,4.6,30,0.00,CLR,,0.00,WeatherDisplay:10.37,2013-04-06 17:55:00,
2013-04-06 14:00:00,63.4,29.7,30.23,NE,45,3.5,3.5,28,0.00,CLR,,0.00,WeatherDisplay:10.37,2013-04-06 18:00:00,
2013-04-06 14:05:00,63.3,28.7,30.23,NE,38,4.6,4.6,27,0.00,CLR,,0.00,WeatherDisplay:10.37,2013-04-06 18:05:00,
2013-04-06 14:10:00,62.9,30.1,30.22,NE,44,3.5,3.5,29,0.00,CLR,,0.00,WeatherDisplay:10.37,2013-04-06 18:10:00,
2013-04-06 14:15:00,62.8,30.9,30.22,NE,46,5.8,5.8,30,0.00,CLR,,0.00,WeatherDisplay:10.37,2013-04-06 18:15:00,
2013-04-06 14:20:00,62.4,32.1,30.22,NNE,30,1.1,1.1,32,0.00,CLR,,0.00,WeatherDisplay:10.37,2013-04-06 18:20:00,
2013-04-06 14:25:00,62.7,29.1,30.22,SW,236,2.3,2.3,28,0.00,CLR,,0.00,WeatherDisplay:10.37,2013-04-06 18:25:00,
2013-04-06 14:30:00,63.0,30.2,30.22,ENE,68,4.6,4.6,29,0.00,CLR,,0.00,WeatherDisplay:10.37,2013-04-06 18:30:00,
2013-04-06 14:35:00,62.6,28.1,30.22,North,9,3.5,3.5,27,0.00,CLR,,0.00,WeatherDisplay:10.37,2013-04-06 18:35:00,
2013-04-06 14:40:00,62.5,30.6,30.21,West,274,4.6,4.6,30,0.00,CLR,,0.00,WeatherDisplay:10.37,2013-04-06 18:40:00,
2013-04-06 14:45:00,63.5,30.6,30.21,NE,56,3.5,3.5,29,0.00,CLR,,0.00,WeatherDisplay:10.37,2013-04-06 18:45:00,
2013-04-06 14:50:00,63.0,30.2,30.21,SE,145,3.0,3.0,29,0.00,CLR,,0.00,WeatherDisplay:10.37,2013-04-06 18:50:00,
2013-04-06 14:55:00,63.8,30.0,30.21,East,86,4.0,4.0,28,0.00,CLR,,0.00,WeatherDisplay:10.37,2013-04-06 18:55:00,
2013-04-06 15:00:00,63.7,30.0,30.21,SE,126,2.3,2.3,28,0.00,CLR,,0.00,WeatherDisplay:10.37,2013-04-06 19:00:00,
2013-04-06 15:05:00,64.0,30.2,30.20,NE,34,3.5,3.5,28,0.00,CLR,,0.00,WeatherDisplay:10.37,2013-04-06 19:05:00,
2013-04-06 15:10:00,64.0,30.2,30.20,NW,309,3.5,3.5,28,0.00,CLR,,0.00,WeatherDisplay:10.37,2013-04-06 19:10:00,
2013-04-06 15:15:00,64.2,31.3,30.20,ENE,75,2.3,2.3,29,0.00,CLR,,0.00,WeatherDisplay:10.37,2013-04-06 19:15:00,
2013-04-06 15:20:00,64.4,29.7,30.20,NE,37,3.5,3.5,27,0.00,CLR,,0.00,WeatherDisplay:10.37,2013-04-06 19:20:00,
2013-04-06 15:25:00,64.0,29.3,30.20,SE,127,5.8,5.8,27,0.00,CLR,,0.00,WeatherDisplay:10.37,2013-04-06 19:25:00,
2013-04-06 15:30:00,64.1,29.4,30.20,ESE,107,4.0,4.0,27,0.00,CLR,,0.00,WeatherDisplay:10.37,2013-04-06 19:30:00,
2013-04-06 15:35:00,64.5,33.2,30.19,WSW,238,2.3,2.3,31,0.00,CLR,,0.00,WeatherDisplay:10.37,2013-04-06 19:35:00,
2013-04-06 15:40:00,65.7,31.7,30.19,WSW,252,3.5,3.5,28,0.00,CLR,,0.00,WeatherDisplay:10.37,2013-04-06 19:40:00,
2013-04-06 15:45:00,66.0,31.9,30.19,West,270,1.1,1.1,28,0.00,CLR,,0.00,WeatherDisplay:10.37,2013-04-06 19:45:00,
2013-04-06 15:50:00,65.9,30.0,30.19,West,260,3.5,3.5,26,0.00,CLR,,0.00,WeatherDisplay:10.37,2013-04-06 19:50:00,
2013-04-06 15:55:00,64.5,29.7,30.19,ENE,70,3.5,3.5,27,0.00,CLR,,0.00,WeatherDisplay:10.37,2013-04-06 19:55:00,
2013-04-06 16:00:00,64.1,30.3,30.18,WSW,243,3.5,3.5,28,0.00,CLR,,0.00,WeatherDisplay:10.37,2013-04-06 20:00:00,
2013-04-06 16:05:00,64.5,30.6,30.18,ESE,115,2.3,2.3,28,0.00,CLR,,0.00,WeatherDisplay:10.37,2013-04-06 20:05:00,
2013-04-06 16:10:00,64.6,29.8,30.18,ENE,75,3.5,3.5,27,0.00,CLR,,0.00,WeatherDisplay:10.37,2013-04-06 20:10:00,
2013-04-06 16:15:00,64.3,31.3,30.18,SE,130,2.3,2.3,29,0.00,CLR,,0.00,WeatherDisplay:10.37,2013-04-06 20:15:00,
2013-04-06 16:20:00,64.8,30.0,30.18,SSW,210,4.6,4.6,27,0.00,CLR,,0.00,WeatherDisplay:10.37,2013-04-06 20:20:00,
2013-04-06 16:25:00,65.2,32.1,30.18,NNE,18,0.0,0.0,29,0.00,CLR,,0.00,WeatherDisplay:10.37,2013-04-06 20:25:00,
2013-04-06 16:30:00,65.8,33.5,30.18,NW,312,2.3,2.3,30,0.00,CLR,,0.00,WeatherDisplay:10.37,2013-04-06 20:30:00,
2013-04-06 16:35:00,66.5,34.1,30.18,SE,131,3.5,3.5,30,0.00,CLR,,0.00,WeatherDisplay:10.37,2013-04-06 20:35:00,
2013-04-06 16:40:00,66.2,31.2,30.17,East,96,6.0,6.0,27,0.00,CLR,,0.00,WeatherDisplay:10.37,2013-04-06 20:40:00,
2013-04-06 16:45:00,65.1,30.3,30.18,ENE,60,3.5,3.5,27,0.00,CLR,,0.00,WeatherDisplay:10.37,2013-04-06 20:45:00,
2013-04-06 16:50:00,64.9,31.0,30.18,ESE,117,1.1,1.1,28,0.00,CLR,,0.00,WeatherDisplay:10.37,2013-04-06 20:50:00,
2013-04-06 16:55:00,65.8,30.9,30.17,ESE,110,2.0,2.0,27,0.00,CLR,,0.00,WeatherDisplay:10.37,2013-04-06 20:55:00,
2013-04-06 17:00:00,66.0,30.1,30.18,West,267,3.5,3.5,26,0.00,CLR,,0.00,WeatherDisplay:10.37,2013-04-06 21:00:00,
2013-04-06 17:05:00,66.4,32.3,30.17,WSW,252,0.0,0.0,28,0.00,CLR,,0.00,WeatherDisplay:10.37,2013-04-06 21:05:00,
2013-04-06 17:10:00,66.2,31.2,30.17,WSW,246,3.5,3.5,27,0.00,CLR,,0.00,WeatherDisplay:10.37,2013-04-06 21:10:00,
2013-04-06 17:15:00,66.0,31.0,30.17,NE,53,1.1,1.1,27,0.00,CLR,,0.00,WeatherDisplay:10.37,2013-04-06 21:15:00,
2013-04-06 17:20:00,66.2,32.1,30.17,ENE,64,2.3,2.3,28,0.00,CLR,,0.00,WeatherDisplay:10.37,2013-04-06 21:20:00,
2013-04-06 17:25:00,65.9,31.8,30.17,ESE,106,2.3,2.3,28,0.00,CLR,,0.00,WeatherDisplay:10.37,2013-04-06 21:25:00,
2013-04-06 17:30:00,65.2,31.2,30.17,ENE,67,3.5,3.5,28,0.00,CLR,,0.00,WeatherDisplay:10.37,2013-04-06 21:30:00,
2013-04-06 17:35:00,65.4,31.4,30.17,SE,137,1.1,0.0,28,0.00,CLR,,0.00,WeatherDisplay:10.37,2013-04-06 21:35:00,
2013-04-06 17:40:00,66.0,32.8,30.18,ESE,110,1.1,1.1,29,0.00,CLR,,0.00,WeatherDisplay:10.37,2013-04-06 21:40:00,
2013-04-06 17:45:00,66.2,33.0,30.18,NW,316,2.3,2.3,29,0.00,CLR,,0.00,WeatherDisplay:10.37,2013-04-06 21:45:00,
2013-04-06 17:50:00,66.1,30.2,30.18,East,82,3.5,3.5,26,0.00,CLR,,0.00,WeatherDisplay:10.37,2013-04-06 21:50:00,
2013-04-06 17:55:00,65.8,32.6,30.18,WSW,252,0.0,0.0,29,0.00,CLR,,0.00,WeatherDisplay:10.37,2013-04-06 21:55:00,
2013-04-06 18:00:00,65.9,32.7,30.18,ENE,70,1.1,0.0,29,0.00,CLR,,0.00,WeatherDisplay:10.37,2013-04-06 22:00:00,
2013-04-06 18:05:00,65.5,30.6,30.18,ESE,122,2.3,2.3,27,0.00,CLR,,0.00,WeatherDisplay:10.37,2013-04-06 22:05:00,
2013-04-06 18:10:00,64.9,31.0,30.18,East,82,3.5,3.5,28,0.00,CLR,,0.00,WeatherDisplay:10.37,2013-04-06 22:10:00,
2013-04-06 18:15:00,64.1,31.2,30.18,ESE,111,5.8,0.0,29,0.00,CLR,,0.00,WeatherDisplay:10.37,2013-04-06 22:15:00,
2013-04-06 18:20:00,64.0,31.1,30.18,ENE,60,3.5,3.5,29,0.00,CLR,,0.00,WeatherDisplay:10.37,2013-04-06 22:20:00,
2013-04-06 18:25:00,63.9,31.0,30.18,East,86,3.5,3.5,29,0.00,CLR,,0.00,WeatherDisplay:10.37,2013-04-06 22:25:00,
2013-04-06 18:30:00,63.6,30.7,30.18,ESE,110,3.5,3.5,29,0.00,CLR,,0.00,WeatherDisplay:10.37,2013-04-06 22:30:00,
2013-04-06 18:35:00,63.4,32.2,30.18,NE,34,1.1,1.1,31,0.00,CLR,,0.00,WeatherDisplay:10.37,2013-04-06 22:35:00,
2013-04-06 18:40:00,63.2,31.2,30.18,SE,129,1.1,1.1,30,0.00,CLR,,0.00,WeatherDisplay:10.37,2013-04-06 22:40:00,
2013-04-06 18:45:00,62.8,30.9,30.19,East,88,1.1,1.1,30,0.00,CLR,,0.00,WeatherDisplay:10.37,2013-04-06 22:45:00,
2013-04-06 18:50:00,62.3,31.3,30.19,ENE,77,3.0,3.0,31,0.00,CLR,,0.00,WeatherDisplay:10.37,2013-04-06 22:50:00,
2013-04-06 18:55:00,61.8,31.6,30.19,East,100,1.1,1.1,32,0.00,CLR,,0.00,WeatherDisplay:10.37,2013-04-06 22:55:00,
2013-04-06 19:00:00,61.3,31.9,30.19,ENE,77,3.5,3.5,33,0.00,CLR,,0.00,WeatherDisplay:10.37,2013-04-06 23:00:00,
2013-04-06 19:05:00,60.9,31.6,30.19,East,79,0.0,0.0,33,0.00,CLR,,0.00,WeatherDisplay:10.37,2013-04-06 23:05:00,
2013-04-06 19:10:00,60.6,32.1,30.19,SE,127,0.0,0.0,34,0.00,CLR,,0.00,WeatherDisplay:10.37,2013-04-06 23:10:00,
2013-04-06 19:15:00,60.2,32.4,30.19,SE,127,1.1,1.1,35,0.00,CLR,,0.00,WeatherDisplay:10.37,2013-04-06 23:15:00,
2013-04-06 19:20:00,59.9,32.2,30.19,ENE,70,0.0,0.0,35,0.00,CLR,,0.00,WeatherDisplay:10.37,2013-04-06 23:20:00,
2013-04-06 19:25:00,59.6,32.6,30.19,ENE,71,0.0,0.0,36,0.00,CLR,,0.00,WeatherDisplay:10.37,2013-04-06 23:25:00,
2013-04-06 19:30:00,59.2,32.2,30.19,ENE,71,1.1,0.0,36,0.00,CLR,,0.00,WeatherDisplay:10.37,2013-04-06 23:30:00,
2013-04-06 19:35:00,58.9,32.7,30.19,ENE,77,1.1,0.0,37,0.00,CLR,,0.00,WeatherDisplay:10.37,2013-04-06 23:35:00,
2013-04-06 19:40:00,58.6,33.0,30.19,East,84,0.0,0.0,38,0.00,CLR,,0.00,WeatherDisplay:10.37,2013-04-06 23:40:00,
2013-04-06 19:45:00,58.3,33.4,30.20,East,83,0.0,0.0,39,0.00,CLR,,0.00,WeatherDisplay:10.37,2013-04-06 23:45:00,
2013-04-06 19:50:00,58.0,33.2,30.20,East,84,0.0,0.0,39,0.00,CLR,,0.00,WeatherDisplay:10.37,2013-04-06 23:50:00,
2013-04-06 19:55:00,57.6,33.4,30.20,East,83,0.0,0.1,40,0.00,CLR,,0.00,WeatherDisplay:10.37,2013-04-06 23:55:00,
2013-04-06 20:00:00,57.3,34.4,30.20,ESE,121,0.0,0.0,42,0.00,CLR,,0.00,WeatherDisplay:10.37,2013-04-07 00:00:00,
2013-04-06 20:05:00,56.9,34.0,30.20,SE,124,0.0,0.0,42,0.00,CLR,,0.00,WeatherDisplay:10.37,2013-04-07 00:05:00,
2013-04-06 20:10:00,56.6,33.8,30.20,SE,124,0.0,0.0,42,0.00,CLR,,0.00,WeatherDisplay:10.37,2013-04-07 00:10:00,
2013-04-06 20:15:00,56.3,34.1,30.20,ESE,119,0.0,0.0,43,0.00,CLR,,0.00,WeatherDisplay:10.37,2013-04-07 00:15:00,
2013-04-06 20:20:00,56.2,34.0,30.21,ESE,118,0.0,0.0,43,0.00,CLR,,0.00,WeatherDisplay:10.37,2013-04-07 00:20:00,
2013-04-06 20:25:00,55.9,34.3,30.21,ESE,119,0.0,0.0,44,0.00,CLR,,0.00,WeatherDisplay:10.37,2013-04-07 00:25:00,
2013-04-06 20:30:00,55.8,34.2,30.21,ESE,119,0.0,0.0,44,0.00,CLR,,0.00,WeatherDisplay:10.37,2013-04-07 00:30:00,
2013-04-06 20:35:00,55.7,34.1,30.21,SE,127,0.0,0.0,44,0.00,CLR,,0.00,WeatherDisplay:10.37,2013-04-07 00:35:00,
2013-04-06 20:40:00,55.7,34.1,30.21,ESE,120,0.0,0.1,44,0.00,CLR,,0.00,WeatherDisplay:10.37,2013-04-07 00:40:00,
2013-04-06 20:45:00,55.6,34.0,30.21,ESE,120,1.1,1.1,44,0.00,CLR,,0.00,WeatherDisplay:10.37,2013-04-07 00:45:00,
2013-04-06 20:50:00,55.5,34.5,30.22,ESE,120,0.0,0.0,45,0.00,CLR,,0.00,WeatherDisplay:10.37,2013-04-07 00:50:00,
2013-04-06 20:55:00,55.4,34.4,30.21,East,99,1.1,1.1,45,0.00,CLR,,0.00,WeatherDisplay:10.37,2013-04-07 00:55:00,
2013-04-06 21:00:00,55.4,34.4,30.22,SE,132,0.0,0.0,45,0.00,CLR,,0.00,WeatherDisplay:10.37,2013-04-07 01:00:00,
2013-04-06 21:05:00,55.3,34.3,30.22,ESE,104,0.0,0.0,45,0.00,CLR,,0.00,WeatherDisplay:10.37,2013-04-07 01:05:00,
2013-04-06 21:10:00,55.2,34.2,30.22,ESE,119,1.1,0.0,45,0.00,CLR,,0.00,WeatherDisplay:10.37,2013-04-07 01:10:00,
2013-04-06 21:15:00,55.1,34.1,30.22,SSE,148,1.0,1.0,45,0.00,CLR,,0.00,WeatherDisplay:10.37,2013-04-07 01:15:00,
2013-04-06 21:20:00,55.0,34.0,30.22,ESE,120,1.1,1.1,45,0.00,CLR,,0.00,WeatherDisplay:10.37,2013-04-07 01:20:00,
2013-04-06 21:25:00,54.9,34.5,30.22,ESE,119,0.0,0.0,46,0.00,CLR,,0.00,WeatherDisplay:10.37,2013-04-07 01:25:00,
2013-04-06 21:30:00,54.7,33.8,30.22,ESE,102,1.1,1.1,45,0.00,CLR,,0.00,WeatherDisplay:10.37,2013-04-07 01:30:00,
2013-04-06 21:35:00,54.7,33.8,30.22,East,101,1.1,1.1,45,0.00,CLR,,0.00,WeatherDisplay:10.37,2013-04-07 01:35:00,
2013-04-06 21:40:00,54.7,34.3,30.22,East,101,1.1,1.1,46,0.00,CLR,,0.00,WeatherDisplay:10.37,2013-04-07 01:40:00,
2013-04-06 21:45:00,54.5,34.1,30.23,West,264,3.5,3.5,46,0.00,CLR,,0.00,WeatherDisplay:10.37,2013-04-07 01:45:00,
2013-04-06 21:50:00,54.4,34.6,30.23,NW,308,1.1,1.1,47,0.00,CLR,,0.00,WeatherDisplay:10.37,2013-04-07 01:50:00,
2013-04-06 21:55:00,54.2,34.9,30.23,ESE,122,2.3,2.3,48,0.00,CLR,,0.00,WeatherDisplay:10.37,2013-04-07 01:55:00,
2013-04-06 22:00:00,54.0,36.3,30.23,East,82,3.5,3.5,51,0.00,CLR,,0.00,WeatherDisplay:10.37,2013-04-07 02:00:00,
2013-04-06 22:05:00,53.9,36.7,30.23,SSE,163,3.5,4.0,52,0.00,CLR,,0.00,WeatherDisplay:10.37,2013-04-07 02:05:00,
2013-04-06 22:10:00,53.9,37.6,30.23,NNW,332,5.8,5.8,54,0.00,CLR,,0.00,WeatherDisplay:10.37,2013-04-07 02:10:00,
2013-04-06 22:15:00,53.7,37.9,30.24,East,92,2.3,2.3,55,0.00,CLR,,0.00,WeatherDisplay:10.37,2013-04-07 02:15:00,
2013-04-06 22:20:00,53.4,38.1,30.24,SE,129,6.0,6.0,56,0.00,CLR,,0.00,WeatherDisplay:10.37,2013-04-07 02:20:00,
2013-04-06 22:25:00,53.1,38.3,30.25,ESE,110,4.0,4.0,57,0.00,CLR,,0.00,WeatherDisplay:10.37,2013-04-07 02:25:00,
2013-04-06 22:30:00,52.8,38.4,30.24,East,81,10.4,10.4,58,0.00,CLR,,0.00,WeatherDisplay:10.37,2013-04-07 02:30:00,
2013-04-06 22:35:00,52.4,38.9,30.25,SE,145,4.0,4.0,60,0.00,CLR,,0.00,WeatherDisplay:10.37,2013-04-07 02:35:00,
2013-04-06 22:40:00,52.2,39.1,30.25,SSW,208,5.8,5.8,61,0.00,CLR,,0.00,WeatherDisplay:10.37,2013-04-07 02:40:00,
2013-04-06 22:45:00,51.9,38.9,30.25,North,355,3.5,3.5,61,0.00,CLR,,0.00,WeatherDisplay:10.37,2013-04-07 02:45:00,
2013-04-06 22:50:00,51.7,39.1,30.25,ESE,122,8.1,8.1,62,0.00,CLR,,0.00,WeatherDisplay:10.37,2013-04-07 02:50:00,
2013-04-06 22:55:00,51.5,38.9,30.25,NW,318,2.3,2.3,62,0.00,CLR,,0.00,WeatherDisplay:10.37,2013-04-07 02:55:00,
2013-04-06 23:00:00,51.2,38.6,30.25,ESE,119,4.6,4.6,62,0.00,CLR,,0.00,WeatherDisplay:10.37,2013-04-07 03:00:00,
2013-04-06 23:05:00,51.1,38.5,30.25,ESE,103,8.1,8.1,62,0.00,CLR,,0.00,WeatherDisplay:10.37,2013-04-07 03:05:00,
2013-04-06 23:10:00,50.9,38.7,30.25,ENE,57,3.5,3.5,63,0.00,CLR,,0.00,WeatherDisplay:10.37,2013-04-07 03:10:00,
2013-04-06 23:15:00,50.7,38.6,30.25,NW,326,5.8,5.8,63,0.00,CLR,,0.00,WeatherDisplay:10.37,2013-04-07 03:15:00,
2013-04-06 23:20:00,50.5,38.4,30.25,WSW,245,3.5,3.5,63,0.00,CLR,,0.00,WeatherDisplay:10.37,2013-04-07 03:20:00,
2013-04-06 23:25:00,50.3,38.6,30.25,NE,39,4.0,4.0,64,0.00,CLR,,0.00,WeatherDisplay:10.37,2013-04-07 03:25:00,
2013-04-06 23:30:00,50.1,38.0,30.25,ESE,105,4.6,4.6,63,0.00,CLR,,0.00,WeatherDisplay:10.37,2013-04-07 03:30:00,
2013-04-06 23:35:00,50.0,37.9,30.25,WSW,245,4.6,4.6,63,0.00,CLR,,0.00,WeatherDisplay:10.37,2013-04-07 03:35:00,
2013-04-06 23:40:00,49.9,37.8,30.25,ENE,60,5.8,5.8,63,0.00,CLR,,0.00,WeatherDisplay:10.37,2013-04-07 03:40:00,
2013-04-06 23:45:00,49.7,38.0,30.25,East,84,5.0,5.0,64,0.00,CLR,,0.00,WeatherDisplay:10.37,2013-04-07 03:45:00,
2013-04-06 23:50:00,49.6,37.5,30.25,WNW,290,4.6,4.6,63,0.00,CLR,,0.00,WeatherDisplay:10.37,2013-04-07 03:50:00,
2013-04-06 23:55:00,49.4,37.7,30.25,SE,127,6.9,6.9,64,0.00,CLR,,0.00,WeatherDisplay:10.37,2013-04-07 03:55:00,